Time;durP1;ratioP1;P1;durP2;ratioP2;P2;SDS_P1;SDS_P2;PMS_P1;PMS_P2;Temp;Humidity;BMP_temperature;BMP_pressure;BME280_temperature;BME280_humidity;BME280_pressure;Samples;Min_cycle;Max_cycle;Signal;HPM_P1;HPM_P2
2022/12/20 00:01:23;;;;;;;50.87;27.13;;;;;;;1.56;88.43;101204.55;1744737;80;21299;-76
2022/12/20 00:03:53;;;;;;;70.87;26.27;;;;;;;1.59;88.33;101202.86;1776323;80;20920;-76
2022/12/20 00:06:22;;;;;;;54.98;22.93;;;;;;;1.58;88.21;101209.75;1775020;80;28779;-75
2022/12/20 00:08:55;;;;;;;46.60;21.67;;;;;;;1.58;88.17;101200.70;1770041;80;21460;-75
2022/12/20 00:11:23;;;;;;;42.73;20.73;;;;;;;1.56;88.04;101189.04;1760563;80;21048;-75
2022/12/20 00:13:50;;;;;;;40.90;19.67;;;;;;;1.54;87.93;101179.10;1750031;80;21136;-76
2022/12/20 00:16:22;;;;;;;38.03;19.13;;;;;;;1.53;87.84;101177.38;1775047;80;21008;-76
2022/12/20 00:18:58;;;;;;;36.03;19.27;;;;;;;1.52;87.73;101169.59;1775621;80;20972;-75
2022/12/20 00:21:26;;;;;;;36.60;18.10;;;;;;;1.50;87.70;101168.73;1775912;80;20977;-75
2022/12/20 00:23:54;;;;;;;36.20;19.13;;;;;;;1.48;87.61;101160.95;1743146;80;21080;-75
2022/12/20 00:26:26;;;;;;;36.07;19.13;;;;;;;1.45;87.46;101167.80;1761680;80;21138;-75
2022/12/20 00:28:54;;;;;;;30.80;17.70;;;;;;;1.41;87.44;101165.58;1775041;80;21266;-76
2022/12/20 00:31:24;;;;;;;34.70;19.67;;;;;;;1.38;87.39;101159.09;1775109;80;21005;-75
2022/12/20 00:33:54;;;;;;;33.00;18.80;;;;;;;1.36;87.34;101164.69;1774917;80;20977;-76
2022/12/20 00:36:23;;;;;;;37.50;19.57;;;;;;;1.35;87.31;101162.92;1775313;80;21302;-76
2022/12/20 00:38:54;;;;;;;40.83;20.70;;;;;;;1.34;87.30;101158.63;1775139;80;21130;-76
2022/12/20 00:41:25;;;;;;;38.00;20.00;;;;;;;1.31;87.25;101149.12;1775115;80;21339;-76
2022/12/20 00:43:52;;;;;;;;;;;;;;;1.30;87.19;101143.92;1776203;80;21547;-76
2022/12/20 00:46:22;;;;;;;34.63;19.20;;;;;;;1.30;87.14;101147.39;1774975;80;20504;-76
2022/12/20 00:48:50;;;;;;;38.67;20.27;;;;;;;1.28;87.13;101145.64;1767512;80;21042;-75
2022/12/20 00:51:22;;;;;;;47.13;24.10;;;;;;;1.27;87.10;101146.46;1745758;80;21955;-76
2022/12/20 00:53:49;;;;;;;43.60;20.13;;;;;;;1.26;87.03;101139.14;1775778;80;21521;-76
2022/12/20 00:56:18;;;;;;;40.77;19.83;;;;;;;1.27;86.96;101132.26;1766656;80;21018;-75
2022/12/20 00:58:46;;;;;;;34.77;19.13;;;;;;;1.27;86.89;101138.72;1758286;80;21048;-76
2022/12/20 01:01:24;;;;;;;37.23;19.67;;;;;;;1.27;86.81;101151.63;1757027;80;21504;-76
2022/12/20 01:03:52;;;;;;;31.67;18.23;;;;;;;1.26;86.75;101145.61;1774935;80;21954;-75
2022/12/20 01:06:20;;;;;;;40.90;18.63;;;;;;;1.25;86.68;101145.17;1774895;80;20944;-75
2022/12/20 01:08:48;;;;;;;39.33;19.70;;;;;;;1.24;86.65;101143.41;1775199;80;21470;-75
2022/12/20 01:11:19;;;;;;;33.00;17.37;;;;;;;1.24;86.63;101139.97;1774916;80;21422;-76
2022/12/20 01:13:50;;;;;;;35.90;18.67;;;;;;;1.24;86.55;101139.54;1772291;80;21014;-75
2022/12/20 01:16:28;;;;;;;28.03;16.23;;;;;;;1.26;86.52;101135.70;1770599;80;21219;-76
2022/12/20 01:18:56;;;;;;;33.50;18.20;;;;;;;1.26;86.50;101135.70;1774744;80;21097;-75
2022/12/20 01:21:26;;;;;;;28.30;15.80;;;;;;;1.27;86.40;101123.22;1774898;80;21747;-76
2022/12/20 01:23:54;;;;;;;32.87;17.17;;;;;;;1.27;86.34;101125.80;1776697;80;20976;-76
2022/12/20 01:26:25;;;;;;;40.93;21.20;;;;;;;1.27;86.30;101128.39;1774934;80;20980;-75
2022/12/20 01:28:56;;;;;;;34.73;19.97;;;;;;;1.28;86.25;101123.69;1747289;80;21226;-75
2022/12/20 01:31:25;;;;;;;39.40;19.33;;;;;;;1.28;86.24;101115.94;1767090;80;21491;-75
2022/12/20 01:33:52;;;;;;;35.63;19.60;;;;;;;1.29;86.19;101111.20;1773620;80;21004;-75
2022/12/20 01:36:25;;;;;;;35.50;17.77;;;;;;;1.30;86.14;101110.34;1775036;80;22055;-76
2022/12/20 01:39:14;;;;;;;34.60;16.40;;;;;;;1.31;86.11;101106.50;1765677;80;21036;-75
2022/12/20 01:41:43;;;;;;;33.13;17.67;;;;;;;1.33;86.04;101115.14;1774860;80;21911;-75
2022/12/20 01:44:21;;;;;;;31.43;17.63;;;;;;;1.35;86.01;101122.89;1776670;80;21485;-75
2022/12/20 01:46:51;;;;;;;30.60;16.30;;;;;;;1.36;85.98;101127.23;1774896;80;20992;-74
2022/12/20 01:49:32;;;;;;;28.93;16.03;;;;;;;1.37;85.90;101112.59;1747242;80;21660;-75
2022/12/20 01:52:14;;;;;;;31.03;17.00;;;;;;;1.38;85.93;101123.36;1774881;80;21046;-75
2022/12/20 01:54:55;;;;;;;32.00;15.78;;;;;;;1.38;85.89;101117.77;1740549;80;21132;-74
2022/12/20 01:57:27;;;;;;;31.13;17.00;;;;;;;1.40;85.85;101115.21;1751251;80;21472;-76
2022/12/20 01:59:56;;;;;;;28.47;15.97;;;;;;;1.39;85.86;101096.27;1770724;80;21022;-75
2022/12/20 02:02:24;;;;;;;31.77;16.60;;;;;;;1.39;85.71;101091.10;1769200;80;21004;-75
2022/12/20 02:04:51;;;;;;;29.60;16.67;;;;;;;1.37;85.69;101084.19;1778836;80;21001;-75
2022/12/20 02:07:23;;;;;;;28.20;16.17;;;;;;;1.37;85.65;101088.92;1749794;80;21092;-75
2022/12/20 02:09:51;;;;;;;30.63;17.43;;;;;;;1.36;85.58;101082.03;1763228;80;21488;-75
2022/12/20 02:12:22;;;;;;;30.40;16.63;;;;;;;1.36;85.50;101085.02;1747088;80;21440;-75
2022/12/20 02:15:15;;;;;;;29.10;16.47;;;;;;;1.35;85.48;101085.44;1771797;80;21532;-75
2022/12/20 02:17:59;;;;;;;24.93;14.83;;;;;;;1.34;85.42;101076.83;1775257;80;21462;-76
2022/12/20 02:20:55;;;;;;;28.03;14.87;;;;;;;1.33;85.40;101058.32;1773888;80;21126;-76
2022/12/20 02:23:33;;;;;;;27.90;15.83;;;;;;;1.33;85.42;101065.17;1776532;80;21015;-76
2022/12/20 02:26:52;;;;;;;30.07;16.10;;;;;;;1.32;85.41;101055.71;1768720;80;20982;-77
2022/12/20 02:30:03;;;;;;;28.20;15.43;;;;;;;1.32;85.41;101058.29;1750510;80;20975;-76
2022/12/20 02:33:01;;;;;;;29.43;15.17;;;;;;;1.30;85.38;101057.00;1752939;80;21018;-76
2022/12/20 02:35:34;;;;;;;29.63;15.77;;;;;;;1.33;85.52;101058.72;1770532;80;21292;-76
2022/12/20 02:38:25;;;;;;;25.80;14.67;;;;;;;1.31;85.39;101049.69;1748404;80;20956;-76
2022/12/20 02:40:57;;;;;;;29.75;15.53;;;;;;;1.32;85.45;101051.41;1734669;82;21046;-76
2022/12/20 02:46:14;;;;;;;26.87;15.00;;;;;;;1.32;85.34;101057.86;1740810;81;21082;-76
2022/12/20 02:48:42;;;;;;;27.13;15.07;;;;;;;1.34;85.35;101049.71;1740670;82;21176;-76
2022/12/20 02:51:11;;;;;;;27.20;15.20;;;;;;;1.37;85.27;101044.15;1740662;82;21043;-76
2022/12/20 02:53:39;;;;;;;24.10;14.70;;;;;;;1.36;85.24;101049.74;1740811;82;21038;-76
2022/12/20 02:56:23;;;;;;;29.43;16.30;;;;;;;1.37;85.21;101046.30;1740794;82;20959;-76
2022/12/20 02:59:02;;;;;;;28.87;15.30;;;;;;;1.39;85.16;101047.19;1740364;82;21042;-76
2022/12/20 03:01:37;;;;;;;27.83;15.77;;;;;;;1.42;85.11;101054.11;1740799;82;21104;-75
2022/12/20 03:04:06;;;;;;;26.83;15.33;;;;;;;1.41;85.05;101048.05;1740941;82;21081;-75
2022/12/20 03:06:33;;;;;;;23.03;13.23;;;;;;;1.42;85.01;101043.78;1740800;82;21090;-76
2022/12/20 03:09:00;;;;;;;25.03;14.63;;;;;;;1.44;85.01;101036.89;1740884;82;21043;-75
2022/12/20 03:11:28;;;;;;;26.13;14.57;;;;;;;1.43;84.90;101035.16;1747847;80;20986;-75
2022/12/20 03:13:56;;;;;;;28.27;15.23;;;;;;;1.43;84.83;101021.81;1774988;80;21120;-75
2022/12/20 03:16:24;;;;;;;27.13;15.03;;;;;;;1.44;84.80;101023.57;1774460;80;21486;-75
2022/12/20 03:18:54;;;;;;;25.97;13.97;;;;;;;1.45;84.76;101048.97;1748880;80;21023;-75
2022/12/20 03:21:21;;;;;;;24.65;13.43;;;;;;;1.46;84.76;101055.86;1776644;80;21043;-75
2022/12/20 03:23:48;;;;;;;25.60;14.77;;;;;;;1.45;84.68;101051.13;1775245;80;21067;-75
2022/12/20 03:26:15;;;;;;;27.90;14.30;;;;;;;1.45;84.62;101036.92;1774975;80;21126;-75
2022/12/20 03:28:44;;;;;;;26.03;13.50;;;;;;;1.46;84.63;101054.56;1774813;80;21024;-75
2022/12/20 03:31:14;;;;;;;24.00;13.97;;;;;;;1.46;84.62;101053.28;1774849;80;20977;-75
2022/12/20 03:33:46;;;;;;;24.27;15.17;;;;;;;1.45;84.61;101047.68;1768667;80;21015;-75
2022/12/20 03:36:14;;;;;;;26.37;15.23;;;;;;;1.44;84.55;101040.77;1754595;80;21007;-75
2022/12/20 03:38:41;;;;;;;24.93;13.80;;;;;;;1.44;84.52;101053.67;1775248;80;21102;-75
2022/12/20 03:41:09;;;;;;;23.77;13.87;;;;;;;1.42;84.56;101053.67;1774990;80;20964;-75
2022/12/20 03:43:36;;;;;;;29.70;14.83;;;;;;;1.41;84.52;101055.80;1776325;80;20937;-75
2022/12/20 03:46:04;;;;;;;21.83;13.23;;;;;;;1.42;84.51;101050.23;1769273;80;21006;-75
2022/12/20 03:48:33;;;;;;;28.83;15.30;;;;;;;1.40;84.52;101043.75;1774210;80;21026;-75
2022/12/20 03:51:00;;;;;;;25.00;14.50;;;;;;;1.40;84.48;101046.76;1769813;80;21884;-76
2022/12/20 03:53:27;;;;;;;26.73;15.27;;;;;;;1.40;84.55;101055.80;1781553;80;20967;-75
2022/12/20 03:55:54;;;;;;;23.90;13.67;;;;;;;1.40;84.52;101055.80;1766382;80;20999;-76
2022/12/20 03:58:21;;;;;;;27.40;14.40;;;;;;;1.38;84.47;101046.73;1771626;79;20972;-75
2022/12/20 04:00:48;;;;;;;138.17;69.67;;;;;;;1.36;84.50;101041.99;1777232;80;21448;-75
2022/12/20 04:03:17;;;;;;;36.30;19.50;;;;;;;1.34;84.45;101030.77;1749344;80;21122;-75
2022/12/20 04:05:45;;;;;;;24.40;13.93;;;;;;;1.31;84.50;101031.61;1769185;80;20999;-76
2022/12/20 04:08:12;;;;;;;26.47;14.57;;;;;;;1.29;84.54;101034.59;1771716;79;21011;-76
2022/12/20 04:13:27;;;;;;;26.73;14.33;;;;;;;1.25;84.60;101048.76;1738998;80;20976;-76
2022/12/20 04:15:54;;;;;;;27.20;14.93;;;;;;;1.25;84.66;101044.88;1752429;79;21899;-77
2022/12/20 04:18:22;;;;;;;27.03;14.97;;;;;;;1.26;84.69;101057.80;1765148;79;21485;-76
2022/12/20 04:20:53;;;;;;;27.23;15.40;;;;;;;1.27;84.71;101053.49;1777085;79;21256;-76
2022/12/20 04:23:22;;;;;;;27.43;15.47;;;;;;;1.27;84.67;101041.88;1775836;80;20991;-76
2022/12/20 04:25:50;;;;;;;26.73;14.63;;;;;;;1.27;84.67;101033.69;1759955;79;21059;-76
2022/12/20 04:28:17;;;;;;;27.80;14.23;;;;;;;1.27;84.67;101038.00;1747807;80;21254;-76
2022/12/20 04:30:45;;;;;;;29.13;14.80;;;;;;;1.28;84.71;101042.33;1752384;79;21582;-76
2022/12/20 04:33:13;;;;;;;26.87;14.97;;;;;;;1.27;84.71;101041.88;1744785;80;21449;-75
2022/12/20 04:35:41;;;;;;;30.43;16.07;;;;;;;1.27;84.66;101042.73;1775464;79;21063;-75
2022/12/20 04:38:08;;;;;;;27.43;14.67;;;;;;;1.29;84.69;101043.63;1750963;80;21023;-75
2022/12/20 04:40:35;;;;;;;29.23;14.97;;;;;;;1.32;84.74;101043.66;1744456;80;21947;-76
2022/12/20 04:43:04;;;;;;;26.93;14.90;;;;;;;1.36;84.78;101044.98;1776934;80;21051;-75
2022/12/20 04:45:31;;;;;;;25.10;15.23;;;;;;;1.40;84.75;101034.70;1776637;80;20995;-75
2022/12/20 04:47:58;;;;;;;29.37;15.03;;;;;;;1.44;84.71;101054.97;1747856;80;20989;-77
2022/12/20 04:50:27;;;;;;;27.47;14.77;;;;;;;1.46;84.63;101050.27;1764151;80;20994;-77
2022/12/20 04:55:40;;;;;;;30.67;15.13;;;;;;;1.51;84.52;101026.64;1738036;80;21026;-75
2022/12/20 04:58:08;;;;;;;28.50;15.47;;;;;;;1.53;84.53;101030.55;1760467;80;21007;-76
2022/12/20 05:00:36;;;;;;;27.47;16.03;;;;;;;1.55;84.47;101027.52;1782822;80;20999;-75
2022/12/20 05:03:06;;;;;;;31.23;16.00;;;;;;;1.60;84.49;101014.66;1782198;80;20991;-75
2022/12/20 05:05:33;;;;;;;26.73;15.40;;;;;;;1.63;84.42;101012.97;1782884;80;21104;-77
2022/12/20 05:08:00;;;;;;;26.27;14.83;;;;;;;1.66;84.39;101013.42;1776164;80;20892;-75
2022/12/20 05:10:28;;;;;;;28.20;15.10;;;;;;;1.68;84.40;101014.31;1753795;80;21043;-75
2022/12/20 05:12:57;;;;;;;28.00;15.37;;;;;;;1.69;84.25;100995.36;1762621;80;20981;-75
2022/12/20 05:15:28;;;;;;;25.10;15.33;;;;;;;1.72;84.25;101019.96;1761140;80;21009;-75
2022/12/20 05:17:59;;;;;;;25.83;15.20;;;;;;;1.74;84.18;101026.84;1767580;80;21584;-76
2022/12/20 05:20:31;;;;;;;28.37;16.07;;;;;;;1.75;84.11;101029.03;1752281;80;20992;-75
2022/12/20 05:28:36;;;;;;;29.60;16.35;;;;;;;1.86;84.09;101042.92;1752194;80;21027;-76
2022/12/20 05:31:04;;;;;;;27.57;15.67;;;;;;;1.88;84.01;101039.89;1767957;80;21125;-75
2022/12/20 05:33:33;;;;;;;27.20;15.73;;;;;;;1.89;83.97;101030.02;1770091;80;21027;-75
2022/12/20 05:36:00;;;;;;;27.00;14.60;;;;;;;1.90;83.84;101023.98;1769785;80;20999;-74
2022/12/20 05:38:27;;;;;;;28.67;15.50;;;;;;;1.90;83.83;101023.12;1742341;80;20968;-73
2022/12/20 05:40:55;;;;;;;27.37;15.57;;;;;;;1.92;83.77;101022.72;1779425;80;21246;-73
2022/12/20 05:43:23;;;;;;;27.43;15.20;;;;;;;1.90;83.73;101027.86;1767840;80;21074;-73
2022/12/20 05:45:52;;;;;;;26.63;14.60;;;;;;;1.92;83.73;101023.58;1766973;80;21484;-74
2022/12/20 05:48:21;;;;;;;29.80;16.27;;;;;;;1.91;83.61;101023.55;1769460;80;21448;-74
2022/12/20 05:50:48;;;;;;;30.43;16.03;;;;;;;1.91;83.58;101022.25;1780002;80;21015;-79
2022/12/20 05:53:23;;;;;;;39.60;21.97;;;;;;;1.88;83.50;101020.51;1767440;80;21011;-76
2022/12/20 05:55:53;;;;;;;56.10;30.87;;;;;;;1.88;83.52;101016.63;1774250;80;21140;-76
2022/12/20 05:58:21;;;;;;;34.13;19.77;;;;;;;1.89;83.57;101017.09;1771821;80;21337;-72
2022/12/20 06:00:50;;;;;;;42.30;21.27;;;;;;;1.89;83.55;101011.06;1773987;80;21055;-72
2022/12/20 06:03:18;;;;;;;39.60;18.37;;;;;;;1.89;83.49;101018.38;1741814;80;21473;-76
2022/12/20 06:05:46;;;;;;;44.73;22.63;;;;;;;1.89;83.47;101027.86;1774715;80;21504;-75
2022/12/20 06:08:15;;;;;;;48.87;31.40;;;;;;;1.87;83.41;101026.55;1771607;79;21575;-74
2022/12/20 06:10:42;;;;;;;56.13;27.40;;;;;;;1.85;83.40;101035.13;1769157;80;20999;-75
2022/12/20 06:13:10;;;;;;;40.03;19.53;;;;;;;1.84;83.38;101032.98;1766047;80;20991;-73
2022/12/20 06:15:38;;;;;;;45.27;21.90;;;;;;;1.81;83.35;101032.09;1767142;80;21023;-74
2022/12/20 06:18:06;;;;;;;49.00;22.77;;;;;;;1.79;83.35;101039.39;1765758;80;21011;-79
2022/12/20 06:20:34;;;;;;;37.27;19.83;;;;;;;1.77;83.37;101034.66;1765833;80;21161;-76
2022/12/20 06:23:04;;;;;;;48.17;21.43;;;;;;;1.76;83.41;101035.49;1764796;80;21555;-74
2022/12/20 06:25:33;;;;;;;46.28;20.85;;;;;;;1.75;83.40;101036.36;1770604;79;21035;-76
2022/12/20 06:28:00;;;;;;;48.13;21.93;;;;;;;1.73;83.35;101028.14;1732364;80;21030;-75
2022/12/20 06:30:27;;;;;;;34.87;18.77;;;;;;;1.71;83.37;101026.83;1769042;80;21622;-76
2022/12/20 06:33:06;;;;;;;42.47;20.87;;;;;;;1.71;83.46;101027.25;1763142;80;21168;-76
2022/12/20 06:35:33;;;;;;;42.47;20.33;;;;;;;1.70;83.54;101026.39;1765766;80;22130;-75
2022/12/20 06:38:00;;;;;;;41.30;18.67;;;;;;;1.70;83.54;101024.24;1769035;80;21015;-76
2022/12/20 06:40:29;;;;;;;41.97;20.87;;;;;;;1.70;83.49;101028.12;1769235;79;21472;-75
2022/12/20 06:42:57;;;;;;;34.53;18.87;;;;;;;1.68;83.50;101025.94;1770071;79;21263;-75
2022/12/20 06:45:25;;;;;;;50.23;24.30;;;;;;;1.70;83.50;101039.75;1770225;79;21137;-73
2022/12/20 06:47:52;;;;;;;49.37;26.30;;;;;;;1.70;83.53;101035.44;1765329;80;21007;-74
2022/12/20 06:50:21;;;;;;;39.23;21.27;;;;;;;1.72;83.58;101040.64;1721692;80;21058;-74
2022/12/20 06:52:48;;;;;;;38.17;18.63;;;;;;;1.71;83.50;101038.45;1768998;80;20987;-79
2022/12/20 06:55:16;;;;;;;45.03;21.47;;;;;;;1.73;83.54;101037.19;1765377;80;21686;-76
2022/12/20 06:57:45;;;;;;;40.73;20.80;;;;;;;1.73;83.49;101033.31;1770503;80;21147;-77
2022/12/20 07:00:14;;;;;;;43.70;22.93;;;;;;;1.75;83.51;101033.77;1768469;80;21007;-74
2022/12/20 07:02:41;;;;;;;36.93;19.93;;;;;;;1.76;83.48;101038.08;1766939;80;22191;-74
2022/12/20 07:05:08;;;;;;;37.47;18.63;;;;;;;1.78;83.51;101037.67;1765032;80;21003;-74
2022/12/20 07:07:37;;;;;;;36.20;19.00;;;;;;;1.79;83.51;101039.39;1765251;80;21310;-74
2022/12/20 07:10:05;;;;;;;43.20;21.40;;;;;;;1.84;83.57;101036.00;1766130;80;21500;-75
2022/12/20 07:12:32;;;;;;;105.70;46.77;;;;;;;1.86;83.49;101043.31;1763771;80;21062;-75
2022/12/20 07:14:59;;;;;;;183.30;66.83;;;;;;;1.88;83.50;101045.06;1766413;79;21003;-74
2022/12/20 07:17:26;;;;;;;172.50;58.23;;;;;;;1.90;83.46;101037.34;1768692;80;20930;-75
2022/12/20 07:19:53;;;;;;;134.77;43.23;;;;;;;1.92;83.39;101040.37;1767069;80;21038;-74
2022/12/20 07:22:21;;;;;;;77.57;28.83;;;;;;;1.93;83.41;101035.64;1766508;79;21066;-74
2022/12/20 07:24:49;;;;;;;124.03;36.47;;;;;;;1.95;83.34;101044.28;1766986;81;21074;-73
2022/12/20 07:27:16;;;;;;;296.67;87.27;;;;;;;1.95;83.29;101042.98;1766502;81;21007;-80
2022/12/20 07:29:43;;;;;;;249.90;74.67;;;;;;;1.95;83.25;101049.88;1767069;81;21002;-74
2022/12/20 07:32:13;;;;;;;65.27;26.33;;;;;;;1.93;83.25;101048.56;1767377;81;20995;-73
2022/12/20 07:34:40;;;;;;;100.80;33.40;;;;;;;1.95;83.27;101043.42;1775755;80;21525;-74
2022/12/20 07:37:07;;;;;;;119.70;37.73;;;;;;;1.94;83.28;101049.02;1770806;80;20989;-73
2022/12/20 07:39:35;;;;;;;134.70;38.77;;;;;;;1.94;83.29;101041.27;1773389;80;21494;-73
2022/12/20 07:42:02;;;;;;;108.47;33.40;;;;;;;1.94;83.27;101032.22;1770407;80;20991;-73
2022/12/20 07:44:31;;;;;;;80.27;28.20;;;;;;;1.93;83.21;101032.19;1771714;80;20965;-73
2022/12/20 07:46:58;;;;;;;231.60;65.23;;;;;;;1.92;83.19;101032.63;1769756;80;21091;-73
2022/12/20 07:49:25;;;;;;;192.47;55.03;;;;;;;1.90;83.16;101034.75;1770009;80;21008;-73
2022/12/20 07:51:56;;;;;;;90.13;32.10;;;;;;;1.89;83.28;101034.33;1771872;80;20979;-73
2022/12/20 07:54:31;;;;;;;68.87;31.10;;;;;;;1.89;83.23;101029.16;1773239;79;21011;-72
2022/12/20 07:57:03;;;;;;;57.90;28.43;;;;;;;1.89;83.28;101027.86;1777171;80;21058;-73
2022/12/20 07:59:38;;;;;;;61.93;26.63;;;;;;;1.89;83.31;101035.62;1775078;79;21137;-73
2022/12/20 08:02:07;;;;;;;53.10;23.03;;;;;;;1.87;83.33;101022.66;1768574;80;20960;-73
2022/12/20 08:04:34;;;;;;;65.10;25.80;;;;;;;1.89;83.32;101027.43;1764625;79;20991;-73
2022/12/20 08:07:02;;;;;;;59.63;27.23;;;;;;;1.92;83.37;100999.02;1745336;79;21493;-73
2022/12/20 08:09:33;;;;;;;103.47;37.20;;;;;;;1.91;83.36;101005.05;1760982;79;20979;-73
2022/12/20 08:12:00;;;;;;;204.45;63.00;;;;;;;1.93;83.41;101005.91;1742987;80;21143;-72
2022/12/20 08:14:27;;;;;;;89.60;31.30;;;;;;;1.94;83.38;101007.66;1766620;80;20976;-73
2022/12/20 08:16:54;;;;;;;59.13;24.20;;;;;;;1.98;83.40;101003.37;1776949;79;21074;-73
2022/12/20 08:19:22;;;;;;;50.30;22.63;;;;;;;2.04;83.51;101000.82;1744449;80;21026;-72
2022/12/20 08:21:49;;;;;;;39.67;20.40;;;;;;;2.10;83.41;101007.76;1772852;80;21132;-73
2022/12/20 08:24:16;;;;;;;53.53;25.10;;;;;;;2.15;83.44;100995.30;1777126;80;21088;-73
2022/12/20 08:26:43;;;;;;;61.70;28.23;;;;;;;2.22;83.38;100998.81;1774930;80;21517;-72
2022/12/20 08:29:13;;;;;;;46.63;24.80;;;;;;;2.28;83.40;101004.02;1768423;80;21011;-73
2022/12/20 08:31:41;;;;;;;54.45;23.80;;;;;;;2.33;83.40;101007.50;1735891;79;21043;-73
2022/12/20 08:34:09;;;;;;;45.13;21.83;;;;;;;2.38;83.24;101006.22;1737594;80;21307;-73
2022/12/20 08:36:36;;;;;;;40.03;19.07;;;;;;;2.42;83.24;101014.02;1761993;80;21493;-73
2022/12/20 08:39:05;;;;;;;44.97;21.63;;;;;;;2.50;83.26;101009.33;1755627;79;21023;-73
2022/12/20 08:41:36;;;;;;;41.63;21.20;;;;;;;2.56;83.24;101005.48;1777260;80;21449;-73
2022/12/20 08:44:05;;;;;;;35.88;19.12;;;;;;;2.61;83.02;101002.48;1766508;80;20956;-73
2022/12/20 08:46:32;;;;;;;36.13;20.17;;;;;;;2.65;82.99;101010.26;1776533;80;21078;-73
2022/12/20 08:48:59;;;;;;;37.30;19.60;;;;;;;2.71;82.93;101014.59;1728330;79;21129;-73
2022/12/20 08:51:27;;;;;;;39.90;21.17;;;;;;;2.78;82.85;101011.62;1723057;80;21012;-73
2022/12/20 08:53:55;;;;;;;39.70;20.47;;;;;;;2.87;82.85;101006.48;1729740;80;21038;-73
2022/12/20 08:56:22;;;;;;;38.77;19.83;;;;;;;2.99;82.77;101023.34;1776981;80;21055;-73
2022/12/20 08:58:49;;;;;;;34.70;18.63;;;;;;;3.10;82.65;101012.63;1777357;80;21019;-73
2022/12/20 09:01:20;;;;;;;41.40;22.60;;;;;;;3.22;82.59;101020.00;1768631;79;21119;-73
2022/12/20 09:03:48;;;;;;;49.77;23.47;;;;;;;3.28;82.35;101027.78;1749883;80;21004;-73
2022/12/20 09:06:19;;;;;;;39.73;21.30;;;;;;;3.30;82.07;101018.30;1776953;80;20968;-73
2022/12/20 09:08:48;;;;;;;45.63;23.80;;;;;;;3.32;81.96;101022.59;1753246;79;21020;-73
2022/12/20 09:11:21;;;;;;;55.70;25.00;;;;;;;3.32;81.88;101017.41;1764283;80;20968;-73
2022/12/20 09:13:51;;;;;;;81.97;40.33;;;;;;;3.29;81.71;101031.66;1771092;80;21059;-73
2022/12/20 09:16:22;;;;;;;72.85;33.90;;;;;;;3.26;81.53;101035.98;1760189;80;21442;-73
2022/12/20 09:18:54;;;;;;;;;;;;;;;3.24;81.57;101034.69;1746297;80;20948;-73
2022/12/20 09:21:21;;;;;;;48.87;22.67;;;;;;;3.24;81.43;101029.91;1776823;80;20127;-73
2022/12/20 09:23:53;;;;;;;45.60;21.60;;;;;;;3.23;81.34;101025.61;1767044;80;21130;-73
2022/12/20 09:26:22;;;;;;;40.40;20.87;;;;;;;3.23;81.38;101025.17;1766641;80;21121;-74
2022/12/20 09:28:50;;;;;;;38.43;19.77;;;;;;;3.23;81.37;101021.72;1755523;79;21014;-73
2022/12/20 09:31:22;;;;;;;41.07;21.20;;;;;;;3.27;81.33;101015.27;1767723;79;21023;-73
2022/12/20 09:33:51;;;;;;;40.43;21.43;;;;;;;3.30;81.36;101006.20;1776420;80;21039;-73
2022/12/20 09:36:21;;;;;;;40.50;20.47;;;;;;;3.36;81.33;101001.47;1768316;79;21012;-73
2022/12/20 09:38:49;;;;;;;38.40;21.20;;;;;;;3.45;81.31;101008.39;1765246;80;21115;-73
2022/12/20 09:41:38;;;;;;;41.70;24.27;;;;;;;3.55;81.17;101016.63;1777010;80;21007;-73
2022/12/20 09:44:35;;;;;;;47.20;23.60;;;;;;;3.66;81.23;101025.28;1762242;79;21015;-74
2022/12/20 09:47:06;;;;;;;38.57;21.43;;;;;;;3.83;81.11;101023.14;1753546;80;20999;-73
2022/12/20 09:49:37;;;;;;;38.10;20.87;;;;;;;3.98;81.00;101017.50;1766157;81;20981;-73
2022/12/20 09:52:13;;;;;;;37.83;20.37;;;;;;;4.14;80.91;101016.20;1726334;79;21186;-74
2022/12/20 09:55:17;;;;;;;40.63;22.83;;;;;;;4.23;80.84;101025.27;1725414;81;21058;-74
2022/12/20 09:57:52;;;;;;;39.50;21.27;;;;;;;4.32;80.69;101025.69;1760300;79;21007;-73
2022/12/20 10:00:20;;;;;;;39.13;22.63;;;;;;;4.42;80.55;101024.38;1771369;80;21340;-73
2022/12/20 10:02:48;;;;;;;35.07;19.57;;;;;;;4.47;80.39;101023.08;1760839;80;21050;-73
2022/12/20 10:05:21;;;;;;;33.53;19.83;;;;;;;4.41;80.06;101017.47;1712367;83;21050;-72
2022/12/20 10:08:22;;;;;;;36.60;20.63;;;;;;;4.39;79.89;101015.30;1719067;79;21079;-72
2022/12/20 10:10:55;;;;;;;37.13;20.67;;;;;;;4.35;79.87;101017.49;1710483;81;21056;-73
2022/12/20 10:13:30;;;;;;;40.00;20.83;;;;;;;4.31;79.80;101027.87;1712017;82;21031;-74
2022/12/20 10:16:29;;;;;;;38.37;20.10;;;;;;;4.25;79.87;101023.55;1727205;81;20987;-73
2022/12/20 10:19:30;;;;;;;37.33;21.43;;;;;;;4.22;79.66;101019.66;1767690;79;21177;-74
2022/12/20 10:22:05;;;;;;;41.03;21.90;;;;;;;4.18;79.68;101017.48;1764566;79;21011;-73
2022/12/20 10:24:34;;;;;;;47.60;24.90;;;;;;;4.13;79.61;101011.87;1728290;80;20952;-74
2022/12/20 10:27:19;;;;;;;42.70;22.03;;;;;;;4.09;79.67;101006.27;1723218;82;21560;-73
2022/12/20 10:29:49;;;;;;;40.27;21.23;;;;;;;4.02;79.59;101001.09;1736103;82;21024;-73
2022/12/20 10:32:21;;;;;;;40.70;21.60;;;;;;;3.99;79.54;101001.09;1727063;81;21102;-73
2022/12/20 10:35:02;;;;;;;48.73;24.40;;;;;;;3.97;79.68;100997.62;1709168;82;21024;-72
2022/12/20 10:37:29;;;;;;;45.63;23.00;;;;;;;4.00;79.81;101000.66;1691080;84;21092;-74
2022/12/20 10:39:57;;;;;;;38.70;20.70;;;;;;;4.02;79.79;100988.12;1709266;82;21075;-73
2022/12/20 10:42:39;;;;;;;39.53;21.13;;;;;;;4.03;79.67;100988.98;1709318;82;21498;-73
2022/12/20 10:45:24;;;;;;;38.40;20.20;;;;;;;4.03;79.71;100991.56;1709361;82;21776;-73
2022/12/20 10:47:53;;;;;;;37.60;20.90;;;;;;;4.05;79.63;101001.92;1740412;81;21459;-73
2022/12/20 10:50:23;;;;;;;43.00;22.20;;;;;;;4.06;79.77;101000.64;1729914;82;21537;-73
2022/12/20 10:53:14;;;;;;;39.37;22.30;;;;;;;4.10;79.78;100993.30;1725460;80;20992;-73
2022/12/20 10:55:42;;;;;;;43.00;22.90;;;;;;;4.20;79.91;100997.59;1725022;82;21366;-73
2022/12/20 10:58:23;;;;;;;39.23;21.93;;;;;;;4.35;79.84;100992.83;1730552;82;21493;-73
2022/12/20 11:00:50;;;;;;;44.27;23.02;;;;;;;4.44;79.67;100981.56;1711977;83;21039;-73
2022/12/20 11:03:21;;;;;;;43.67;23.13;;;;;;;4.50;79.56;100973.75;1711972;82;21103;-73
2022/12/20 11:06:02;;;;;;;42.37;23.83;;;;;;;4.52;79.43;100969.83;1711918;83;21504;-73
2022/12/20 11:08:31;;;;;;;42.70;22.77;;;;;;;4.54;79.48;100987.14;1677671;85;21028;-73
2022/12/20 11:11:21;;;;;;;40.13;21.70;;;;;;;4.57;79.24;100969.39;1713422;83;21099;-73
2022/12/20 11:13:50;;;;;;;42.75;21.68;;;;;;;4.59;79.12;100968.52;1695764;82;21030;-73
2022/12/20 11:16:35;;;;;;;36.60;20.23;;;;;;;4.63;79.05;100965.06;1714107;82;21023;-73
2022/12/20 11:19:32;;;;;;;38.57;20.83;;;;;;;4.72;79.16;100965.45;1714528;83;21038;-73
2022/12/20 11:22:10;;;;;;;40.83;21.73;;;;;;;4.80;79.18;100965.43;1711853;83;21063;-73
2022/12/20 11:25:08;;;;;;;40.70;21.10;;;;;;;4.82;79.03;100951.98;1714582;83;21107;-73
2022/12/20 11:27:41;;;;;;;38.63;21.80;;;;;;;4.88;78.99;100955.44;1691555;83;21031;-73
2022/12/20 11:30:20;;;;;;;38.63;21.33;;;;;;;4.89;78.89;100962.78;1713975;83;21046;-73
2022/12/20 11:33:08;;;;;;;37.30;20.88;;;;;;;4.92;78.93;100962.33;1714528;83;21022;-73
2022/12/20 11:36:02;;;;;;;41.87;22.83;;;;;;;4.95;78.82;100954.95;1714321;82;21550;-73
2022/12/20 11:38:40;;;;;;;45.03;23.53;;;;;;;4.98;78.80;100958.83;1731188;80;21990;-73
2022/12/20 11:41:16;;;;;;;41.43;23.30;;;;;;;5.00;78.82;100951.91;1764790;80;20968;-74
2022/12/20 11:44:08;;;;;;;40.67;22.40;;;;;;;5.01;78.89;100940.62;1764267;80;21039;-74
2022/12/20 11:46:49;;;;;;;41.77;22.57;;;;;;;5.06;78.89;100937.57;1771251;80;21003;-74
2022/12/20 11:49:48;;;;;;;46.63;25.70;;;;;;;5.10;78.85;100951.43;1747722;81;21019;-74
2022/12/20 11:52:42;;;;;;;46.03;24.27;;;;;;;5.11;78.70;100960.94;1747365;82;22217;-73